Latest Weather Observations for Wilcannia Airport

IDN60801

Issued at 10:35 am EDT Wednesday 22 October 2014 (issued every 30 minutes, with the page automatically refreshed every 10 minutes)

About weather observations | Map of weather stations | Latest weather observations for NSW | Other Formats
Station Details ID: 046012 Name: WILCANNIA AERODROME AWS Lat: -31.52 Lon: 143.38 Height: 94.3 m
Data from the previous 72 hours. | See also: Recent months for locations in New South Wales
Date/Time
EDT
Temp
°C
App
Temp
°C
Dew
Point
Rel
Hum
%
Delta-T
°C
Wind Press
QNH
hPa
Press
MSL
hPa
Rain
since 9 am
mm
Dir
 
Spd
km/h
Gust
km/h
Spd
kts
Gust
kts
22/10:30am 31.0 24.3 5.4 20 13.5 NE 30 41 16 22 1019.0 1018.8 0.0
22/10:00am 29.0 22.1 4.5 21 12.6 NE 30 37 16 20 1019.4 1019.2 0.0
22/09:30am 28.3 22.7 5.2 23 12.0 ENE 24 33 13 18 1019.6 1019.4 0.0
22/09:00am 25.9 20.1 4.4 25 10.8 ENE 24 33 13 18 1019.2 1019.0 0.2
22/08:30am 24.7 18.4 3.9 26 10.3 E 26 35 14 19 1018.7 1018.5 0.2
22/08:00am 24.0 18.5 3.9 27 9.9 E 22 28 12 15 1018.9 1018.7 0.2
22/07:30am 23.1 19.1 3.1 27 9.7 ESE 13 17 7 9 1019.2 1019.0 0.2
22/07:00am 22.3 17.9 2.9 28 9.3 SE 15 17 8 9 1019.2 1019.0 0.2
22/06:30am 21.5 17.7 1.7 27 9.2 SSW 11 13 6 7 1018.7 1018.5 0.2
22/06:00am 22.6 20.5 1.6 25 9.8 ENE 2 9 1 5 1018.1 1017.9 0.2
22/05:30am 22.7 18.6 2.2 26 9.7 WNW 13 20 7 11 1017.3 1017.0 0.2
22/05:00am 21.8 17.5 0.9 25 9.6 ENE 13 17 7 9 1016.8 1016.5 0.2
22/04:30am 22.6 17.5 1.0 24 10.0 E 17 20 9 11 1016.9 1016.6 0.2
22/04:00am 23.0 17.9 0.8 23 10.2 E 17 20 9 11 1016.8 1016.5 0.2
22/03:30am 21.5 16.8 0.7 25 9.5 E 15 20 8 11 1016.8 1016.5 0.2
22/03:00am 21.0 17.6 1.8 28 8.9 ENE 9 11 5 6 1016.8 1016.5 0.2
22/02:30am 21.5 19.8 1.7 27 9.2 CALM 0 0 0 0 1017.2 1016.9 0.2
22/02:00am 23.6 19.7 1.3 23 10.4 NW 11 13 6 7 1017.4 1017.1 0.2
22/01:30am 23.6 19.3 1.3 23 10.4 NW 13 19 7 10 1017.9 1017.6 0.2
22/01:00am 25.0 20.7 1.2 21 11.2 N 13 15 7 8 1018.0 1017.7 0.2
22/12:30am 25.9 20.8 0.5 19 11.9 N 17 19 9 10 1018.4 1018.2 0.2
22/12:00am 26.5 21.6 -0.5 17 12.5 N 15 17 8 9 1018.5 1018.3 0.2
 
Date/Time
EDT
Temp
°C
App
Temp
°C
Dew
Point
Rel
Hum
%
Delta-T
°C
Wind Press
QNH
hPa
Press
MSL
hPa
Rain
since 9 am
mm
Dir
 
Spd
km/h
Gust
km/h
Spd
kts
Gust
kts
21/11:30pm 25.2 20.6 1.3 21 11.3 NNE 15 19 8 10 1018.6 1018.4 0.2
21/11:00pm 24.9 20.6 1.1 21 11.2 NNE 13 15 7 8 1018.7 1018.5 0.2
21/10:30pm 25.0 20.3 1.2 21 11.2 NNE 15 15 8 8 1018.8 1018.6 0.2
21/10:00pm 25.3 21.0 0.7 20 11.5 NE 13 15 7 8 1018.7 1018.5 0.2
21/09:30pm 25.7 21.2 -0.4 18 12.0 ENE 13 15 7 8 1018.6 1018.4 0.2
21/09:00pm 25.9 21.3 -1.0 17 12.3 ENE 13 13 7 7 1018.4 1018.2 0.2
21/08:30pm 27.7 23.2 -0.4 16 13.2 ENE 13 13 7 7 1018.3 1018.1 0.2
21/08:00pm 30.0 25.1 -0.4 14 14.4 ENE 15 17 8 9 1018.1 1017.9 0.2
21/07:30pm 32.4 28.4 0.5 13 15.7 E 11 13 6 7 1018.0 1017.7 0.2
21/07:00pm 35.2 31.2 0.3 11 17.4 ENE 11 13 6 7 1017.7 1017.4 0.2
21/06:30pm 34.5 30.8 2.1 13 16.6 NE 11 19 6 10 1017.7 1017.4 0.0
21/06:00pm 35.7 32.5 0.7 11 17.6 N 7 13 4 7 1017.6 1017.3 0.0
21/05:30pm 36.7 33.4 0.1 10 18.4 NNW 7 19 4 10 1017.5 1017.2 0.0
21/05:00pm 37.4 33.4 0.7 10 18.6 NNW 11 19 6 10 1017.6 1017.3 0.0
21/04:30pm 37.9 34.0 1.0 10 18.9 E 11 20 6 11 1017.7 1017.4 0.0
21/04:00pm 37.5 32.0 0.7 10 18.7 NNE 19 26 10 14 1018.0 1017.7 0.0
21/03:30pm 37.0 33.4 0.4 10 18.5 WNW 9 15 5 8 1018.4 1018.2 0.0
21/03:00pm 37.7 34.1 0.9 10 18.8 N 9 19 5 10 1018.8 1018.6 0.0
21/02:30pm 37.0 31.8 0.4 10 18.5 NW 17 30 9 16 1019.4 1019.2 0.0
21/02:00pm 37.3 32.8 1.9 11 18.3 NNW 15 24 8 13 1019.6 1019.4 0.0
21/01:30pm 37.3 32.2 3.1 12 18.1 N 19 32 10 17 1020.1 1019.9 0.0
21/01:00pm 36.4 31.0 2.4 12 17.6 NNW 20 35 11 19 1020.5 1020.3 0.0
21/12:30pm 36.0 30.8 3.3 13 17.2 N 20 32 11 17 1020.9 1020.7 0.0
21/12:00pm 35.5 30.4 2.9 13 16.9 N 19 26 10 14 1021.2 1021.0 0.0
21/11:30am 33.9 28.5 2.7 14 16.0 N 20 30 11 16 1021.6 1021.4 0.0
21/11:00am 33.2 28.5 3.1 15 15.5 NNE 17 30 9 16 1021.8 1021.6 0.0
21/10:30am 31.0 25.3 3.1 17 14.2 NNE 22 30 12 16 1022.0 1021.8 0.0
21/10:00am 29.3 23.2 2.5 18 13.3 NE 24 33 13 18 1022.1 1021.9 0.0
21/09:30am 28.2 22.2 3.1 20 12.5 NE 24 32 13 17 1022.1 1021.9 0.0
21/09:00am 26.1 19.5 2.1 21 11.6 NE 26 35 14 19 1022.0 1021.8 0.0
21/08:30am 24.7 18.4 1.6 22 11.0 ENE 24 33 13 18 1021.8 1021.6 0.0
21/08:00am 22.4 17.8 1.4 25 9.7 ENE 15 19 8 10 1021.5 1021.3 0.0
21/07:30am 20.5 15.4 0.9 27 8.9 ENE 17 20 9 11 1021.3 1021.1 0.0
21/07:00am 17.7 12.2 0.4 31 7.6 ENE 19 20 10 11 1020.9 1020.7 0.0
21/06:30am 16.1 11.2 -0.6 32 7.1 E 15 17 8 9 1020.4 1020.2 0.0
21/06:00am 17.3 13.2 0.0 31 7.5 ESE 11 15 6 8 1020.1 1019.9 0.0
21/05:30am 16.5 12.1 0.6 34 6.9 ESE 13 15 7 8 1019.8 1019.6 0.0
21/05:00am 13.8 9.6 -1.0 36 6.1 SE 11 13 6 7 1019.8 1019.6 0.0
21/04:30am 15.4 11.6 -0.4 34 6.7 S 9 9 5 5 1019.8 1019.6 0.0
21/04:00am 15.6 11.8 -1.0 32 6.9 S 9 11 5 6 1019.8 1019.6 0.0
21/03:30am 17.3 13.5 -0.4 30 7.6 S 9 11 5 6 1020.0 1019.8 0.0
21/03:00am 16.8 13.2 -1.8 28 7.7 S 7 9 4 5 1020.0 1019.8 0.0
21/02:30am 18.9 15.0 -1.5 25 8.7 SSE 9 11 5 6 1020.2 1020.0 0.0
21/02:00am 21.4 16.8 -1.2 22 9.9 SSE 13 13 7 7 1020.4 1020.2 0.0
21/01:30am 22.5 17.8 -1.6 20 10.6 SSE 13 13 7 7 1020.7 1020.5 0.0
21/01:00am 23.3 18.6 -1.6 19 11.0 SE 13 17 7 9 1020.9 1020.7 0.0
21/12:30am 23.3 18.7 -0.9 20 10.8 SE 13 15 7 8 1021.0 1020.8 0.0
21/12:00am 20.3 15.6 -1.5 23 9.4 SSE 13 17 7 9 1021.1 1020.9 0.0
 
Date/Time
EDT
Temp
°C
App
Temp
°C
Dew
Point
Rel
Hum
%
Delta-T
°C
Wind Press
QNH
hPa
Press
MSL
hPa
Rain
since 9 am
mm
Dir
 
Spd
km/h
Gust
km/h
Spd
kts
Gust
kts
20/11:30pm 22.5 19.1 -0.9 21 10.4 ESE 7 9 4 5 1021.0 1020.8 0.0
20/11:00pm 23.3 19.2 -0.2 21 10.6 ESE 11 13 6 7 1020.9 1020.7 0.0
20/10:30pm 23.0 18.6 0.2 22 10.4 ESE 13 15 7 8 1020.7 1020.5 0.0
20/10:00pm 24.1 20.1 -2.4 17 11.6 S 9 11 5 6 1020.5 1020.3 0.0
20/09:30pm 26.4 22.5 -1.4 16 12.7 S 9 11 5 6 1020.3 1020.1 0.0
20/09:00pm 23.9 20.3 -1.8 18 11.3 ESE 7 15 4 8 1020.2 1020.0 0.0
20/08:30pm 25.1 21.4 -2.5 16 12.2 E 7 7 4 4 1019.8 1019.6 0.0
20/08:00pm 27.9 24.5 -2.0 14 13.6 E 6 6 3 3 1019.5 1019.3 0.0
20/07:30pm 31.6 28.3 -1.2 12 15.6 E 6 6 3 3 1019.1 1018.9 0.0
20/07:00pm 33.6 29.4 -0.9 11 16.7 E 11 15 6 8 1018.9 1018.7 0.0
20/06:30pm 34.8 30.9 -1.3 10 17.5 SSE 9 13 5 7 1018.8 1018.6 0.0
20/06:00pm 35.5 31.7 -0.8 10 17.8 S 9 13 5 7 1018.9 1018.7 0.0
20/05:30pm 35.8 31.7 -0.5 10 17.9 SE 11 19 6 10 1019.0 1018.8 0.0
20/05:00pm 35.6 31.8 -0.7 10 17.8 E 9 15 5 8 1019.0 1018.8 0.0
20/04:30pm 35.7 31.5 -0.6 10 17.9 E 11 17 6 9 1019.1 1018.9 0.0
20/04:00pm 36.0 32.2 -0.4 10 18.0 NE 9 17 5 9 1019.3 1019.1 0.0
20/03:30pm 35.8 32.0 -0.5 10 17.9 NNW 9 19 5 10 1019.7 1019.5 0.0
20/03:00pm 35.7 31.2 -0.6 10 17.9 NNE 13 19 7 10 1020.2 1020.0 0.0
20/02:30pm 35.7 32.5 -0.6 10 17.9 ESE 6 15 3 8 1020.7 1020.5 0.0
20/02:00pm 35.3 30.7 -0.9 10 17.7 ENE 13 17 7 9 1021.1 1020.9 0.0
20/01:30pm 34.9 31.6 0.1 11 17.3 E 7 20 4 11 1021.4 1021.2 0.0
20/01:00pm 35.0 31.3 0.2 11 17.3 NE 9 15 5 8 1021.8 1021.6 0.0
20/12:30pm 34.7 30.6 -0.1 11 17.2 ENE 11 19 6 10 1022.2 1022.0 0.0
20/12:00pm 34.5 30.0 -0.2 11 17.0 NE 13 19 7 10 1022.7 1022.5 0.0
20/11:30am 33.7 30.1 0.4 12 16.5 ENE 9 15 5 8 1023.0 1022.8 0.0
20/11:00am 32.9 29.3 0.9 13 15.8 NE 9 17 5 9 1023.3 1023.1 0.0
20/10:30am 31.2 27.7 1.5 15 14.7 NE 9 13 5 7 1023.4 1023.2 0.0
20/10:00am 29.2 25.2 0.8 16 13.7 NE 11 15 6 8 1023.3 1023.1 0.0
20/09:30am 27.8 23.4 0.5 17 13.0 NE 13 17 7 9 1023.1 1022.9 0.0
20/09:00am 25.9 21.9 0.5 19 11.9 NE 11 15 6 8 1022.9 1022.7 0.0
20/08:30am 23.8 19.4 0.2 21 10.8 NE 13 17 7 9 1022.7 1022.5 0.0
20/08:00am 21.4 17.1 1.1 26 9.3 NE 13 15 7 8 1022.4 1022.2 0.0
20/07:30am 18.2 13.5 0.8 31 7.7 NE 15 17 8 9 1022.1 1021.9 0.0
20/07:00am 15.6 10.8 0.2 35 6.6 NNE 15 17 8 9 1021.8 1021.6 0.0
20/06:30am 14.9 10.3 -0.8 34 6.5 NE 13 13 7 7 1021.5 1021.3 0.0
20/06:00am 15.4 10.8 -0.8 33 6.8 NE 13 15 7 8 1021.2 1021.0 0.0
20/05:30am 16.9 11.6 -0.8 30 7.5 ENE 17 20 9 11 1020.8 1020.6 0.0
20/05:00am 17.0 12.2 0.2 32 7.3 ENE 15 17 8 9 1020.5 1020.3 0.0
20/04:30am 17.8 13.3 -0.5 29 7.9 ENE 13 13 7 7 1020.3 1020.1 0.0
20/04:00am 20.1 14.9 0.0 26 8.9 NNE 17 17 9 9 1020.2 1020.0 0.0
20/03:30am 19.0 14.6 0.1 28 8.3 NNE 13 13 7 7 1020.3 1020.1 0.0
20/03:00am 18.1 14.7 -0.7 28 8.1 NE 7 9 4 5 1020.5 1020.3 0.0
20/02:30am 17.7 14.0 -0.1 30 7.7 NE 9 11 5 6 1020.8 1020.6 0.0
20/02:00am 17.4 13.6 -0.8 29 7.7 NE 9 9 5 5 1021.1 1020.9 0.0
20/01:30am 18.6 14.9 -0.2 28 8.2 NE 9 11 5 6 1021.1 1020.9 0.0
20/01:00am 19.4 15.3 -0.1 27 8.6 E 11 13 6 7 1021.4 1021.2 0.0
20/12:30am 19.9 15.5 0.4 27 8.7 ESE 13 13 7 7 1021.5 1021.3 0.0
20/12:00am 19.2 14.8 0.3 28 8.3 ESE 13 15 7 8 1021.7 1021.5 0.0
 
Date/Time
EDT
Temp
°C
App
Temp
°C
Dew
Point
Rel
Hum
%
Delta-T
°C
Wind Press
QNH
hPa
Press
MSL
hPa
Rain
since 9 am
mm
Dir
 
Spd
km/h
Gust
km/h
Spd
kts
Gust
kts
19/11:30pm 19.8 15.8 0.3 27 8.7 E 11 13 6 7 1021.9 1021.7 0.0
19/11:00pm 19.1 14.9 -0.8 26 8.6 SSE 11 13 6 7 1021.8 1021.6 0.0
19/10:30pm 18.6 16.4 -1.3 26 8.5 CALM 0 0 0 0 1021.7 1021.5 0.0
19/10:00pm 19.4 17.3 -1.1 25 8.8 CALM 0 0 0 0 1021.6 1021.4 0.0
19/09:30pm 20.3 18.2 -0.9 24 9.3 CALM 0 0 0 0 1021.4 1021.2 0.0
19/09:00pm 20.9 18.7 -1.6 22 9.7 CALM 0 0 0 0 1021.0 1020.8 0.0
19/08:30pm 22.7 19.8 -1.4 20 10.6 NNE 4 6 2 3 1020.8 1020.6 0.0
19/08:00pm 25.0 21.9 -2.5 16 12.1 NNE 4 6 2 3 1020.5 1020.3 0.0
19/07:30pm 28.8 25.4 -2.3 13 14.2 NNE 6 6 3 3 1020.2 1020.0 0.0
19/07:00pm 31.8 28.0 -1.1 12 15.6 N 9 13 5 7 1019.9 1019.7 0.0
19/06:30pm 32.6 28.3 -1.7 11 16.3 NNE 11 17 6 9 1019.6 1019.4 0.0
19/06:00pm 32.7 28.8 -1.6 11 16.3 NE 9 15 5 8 1019.5 1019.3 0.0
19/05:30pm 33.6 30.2 -0.9 11 16.7 NNW 7 17 4 9 1019.4 1019.2 0.0
19/05:00pm 33.4 29.2 -1.0 11 16.6 NE 11 19 6 10 1019.4 1019.2 0.0
19/04:30pm 33.6 29.8 -0.9 11 16.7 NNW 9 19 5 10 1019.5 1019.3 0.0
19/04:00pm 33.1 29.2 -1.3 11 16.4 NE 9 11 5 6 1019.7 1019.5 0.0
19/03:30pm 33.3 29.2 0.1 12 16.3 NNW 11 20 6 11 1020.1 1019.9 0.0
19/03:00pm 33.0 28.1 -0.2 12 16.1 NW 15 24 8 13 1020.6 1020.4 0.0
19/02:30pm 32.7 28.2 -0.4 12 16.1 NNW 13 22 7 12 1021.0 1020.8 0.0
19/02:00pm 32.2 26.9 -0.8 12 15.8 NE 17 20 9 11 1021.6 1021.4 0.0
19/01:30pm 31.7 27.1 -1.2 12 15.6 NE 13 19 7 10 1022.1 1021.9 0.0
19/01:00pm 31.7 26.1 -0.1 13 15.3 N 19 28 10 15 1022.6 1022.4 0.0
19/12:30pm 31.6 26.0 -0.1 13 15.3 NNE 19 24 10 13 1022.9 1022.7 0.0
19/12:00pm 30.8 25.0 0.2 14 14.7 N 20 30 11 16 1023.2 1023.0 0.0
19/11:30am 30.1 23.9 -0.3 14 14.5 NNE 22 30 12 16 1023.6 1023.4 0.0
19/11:00am 29.7 24.0 0.3 15 14.1 NNE 20 30 11 16 1024.2 1023.9 0.0

Other Formats:

Comma delimited format used in spreadsheet applications
http://www.bom.gov.au/fwo/IDN60801/IDN60801.95695.axf

JavaScript Object Notation format (JSON) in row-major order
http://www.bom.gov.au/fwo/IDN60801/IDN60801.95695.json